Time,TemperatureF,DewpointF,PressureIn,WindDirection,WindDirectionDegrees,WindSpeedMPH,WindSpeedGustMPH,Humidity,HourlyPrecipIn,Conditions,Clouds,dailyrainin,SoftwareType,DateUTC
2013-01-03 00:04:00,29.6,19.6,30.09,ESE,121,0.0,0.0,66,0.00,,---,0.00,VWS V14.00,2013-01-03 07:04:00,
2013-01-03 00:09:00,28.7,19.1,30.10,ESE,121,0.0,0.0,67,0.00,,---,0.00,VWS V14.00,2013-01-03 07:09:00,
2013-01-03 00:14:00,28.3,20.1,30.09,ESE,121,0.0,0.0,71,0.00,,---,0.00,VWS V14.00,2013-01-03 07:14:00,
2013-01-03 00:19:00,28.3,20.1,30.10,ESE,121,0.0,0.0,71,0.00,,---,0.00,VWS V14.00,2013-01-03 07:19:00,
2013-01-03 00:24:00,28.3,20.1,30.09,ESE,121,0.0,0.0,71,0.00,,---,0.00,VWS V14.00,2013-01-03 07:24:00,
2013-01-03 00:29:00,28.0,19.5,30.09,ESE,121,0.0,0.0,70,0.00,,---,0.00,VWS V14.00,2013-01-03 07:29:00,
2013-01-03 00:34:00,27.5,19.7,30.10,ESE,121,0.0,0.0,72,0.00,,---,0.00,VWS V14.00,2013-01-03 07:34:00,
2013-01-03 00:39:00,27.2,19.7,30.10,ESE,121,0.0,0.0,73,0.00,,---,0.00,VWS V14.00,2013-01-03 07:39:00,
2013-01-03 00:44:00,26.7,18.9,30.09,ESE,121,0.0,0.0,72,0.00,,---,0.00,VWS V14.00,2013-01-03 07:44:00,
2013-01-03 00:49:00,26.5,19.4,30.09,ESE,121,0.0,0.0,74,0.00,,---,0.00,VWS V14.00,2013-01-03 07:49:00,
2013-01-03 00:54:00,26.5,19.7,30.09,ESE,121,0.0,0.0,75,0.00,,---,0.00,VWS V14.00,2013-01-03 07:54:00,
2013-01-03 00:59:00,26.8,20.3,30.09,ESE,121,0.0,0.0,76,0.00,,---,0.00,VWS V14.00,2013-01-03 07:59:00,
2013-01-03 01:04:00,27.7,21.1,30.09,ESE,121,0.0,0.0,76,0.00,,---,0.00,VWS V14.00,2013-01-03 08:04:00,
2013-01-03 01:09:00,28.5,21.0,30.09,ESE,121,0.0,0.0,73,0.00,,---,0.00,VWS V14.00,2013-01-03 08:09:00,
2013-01-03 01:14:00,28.4,19.9,30.09,ESE,121,0.0,0.0,70,0.00,,---,0.00,VWS V14.00,2013-01-03 08:14:00,
2013-01-03 01:19:00,27.6,19.4,30.09,ESE,121,0.0,0.0,71,0.00,,---,0.00,VWS V14.00,2013-01-03 08:19:00,
2013-01-03 01:24:00,26.7,18.9,30.09,ESE,121,0.0,0.0,72,0.00,,---,0.00,VWS V14.00,2013-01-03 08:24:00,
2013-01-03 01:29:00,25.8,18.4,30.09,ESE,121,0.0,0.0,73,0.00,,---,0.00,VWS V14.00,2013-01-03 08:29:00,
2013-01-03 01:34:00,25.4,18.9,30.09,ESE,121,0.0,0.0,76,0.00,,---,0.00,VWS V14.00,2013-01-03 08:34:00,
2013-01-03 01:39:00,25.9,20.3,30.09,ESE,121,0.0,0.0,79,0.00,,---,0.00,VWS V14.00,2013-01-03 08:39:00,
2013-01-03 01:44:00,27.0,21.4,30.09,ESE,121,0.0,0.0,79,0.00,,---,0.00,VWS V14.00,2013-01-03 08:44:00,
2013-01-03 01:49:00,28.4,21.8,30.09,ESE,121,0.0,0.0,76,0.00,,---,0.00,VWS V14.00,2013-01-03 08:49:00,
2013-01-03 01:54:00,29.2,21.6,30.09,ESE,121,0.0,0.0,73,0.00,,---,0.00,VWS V14.00,2013-01-03 08:54:00,
2013-01-03 01:59:00,30.0,21.8,30.09,ESE,121,0.0,0.0,71,0.00,,---,0.00,VWS V14.00,2013-01-03 08:59:00,
2013-01-03 02:04:00,30.5,21.9,30.09,ESE,121,0.0,0.0,70,0.00,,---,0.00,VWS V14.00,2013-01-03 09:04:00,
2013-01-03 02:09:00,30.6,21.6,30.10,ESE,118,0.0,0.0,69,0.00,,---,0.00,VWS V14.00,2013-01-03 09:09:00,
2013-01-03 02:14:00,31.0,22.0,30.10,ENE,58,0.0,2.0,69,0.00,,---,0.00,VWS V14.00,2013-01-03 09:14:00,
2013-01-03 02:19:00,31.3,22.0,30.10,ENE,58,0.0,2.0,68,0.00,,---,0.00,VWS V14.00,2013-01-03 09:19:00,
2013-01-03 02:24:00,31.8,21.8,30.10,ENE,58,0.0,2.0,66,0.00,,---,0.00,VWS V14.00,2013-01-03 09:24:00,
2013-01-03 02:29:00,32.0,21.9,30.10,North,355,1.0,5.0,66,0.00,,---,0.00,VWS V14.00,2013-01-03 09:29:00,
2013-01-03 02:34:00,32.4,21.6,30.10,NNW,333,7.0,7.0,64,0.00,,---,0.00,VWS V14.00,2013-01-03 09:34:00,
2013-01-03 02:39:00,33.1,21.9,30.10,NNW,336,3.0,10.0,63,0.00,,---,0.00,VWS V14.00,2013-01-03 09:39:00,
2013-01-03 02:44:00,33.8,21.8,30.09,NNW,331,6.0,12.0,61,0.00,,---,0.00,VWS V14.00,2013-01-03 09:44:00,
2013-01-03 02:49:00,34.2,21.8,30.10,NNW,343,1.0,12.0,60,0.00,,---,0.00,VWS V14.00,2013-01-03 09:49:00,
2013-01-03 02:54:00,34.2,21.8,30.10,NNW,341,0.0,12.0,60,0.00,,---,0.00,VWS V14.00,2013-01-03 09:54:00,
2013-01-03 02:59:00,34.1,21.7,30.10,NNW,336,0.0,12.0,60,0.00,,---,0.00,VWS V14.00,2013-01-03 09:59:00,
2013-01-03 03:04:00,34.0,21.6,30.10,NNW,336,0.0,1.0,60,0.00,,---,0.00,VWS V14.00,2013-01-03 10:04:00,
2013-01-03 03:09:00,34.1,22.1,30.10,NNW,336,0.0,1.0,61,0.00,,---,0.00,VWS V14.00,2013-01-03 10:09:00,
2013-01-03 03:14:00,34.4,22.4,30.10,NNW,336,0.0,1.0,61,0.00,,---,0.00,VWS V14.00,2013-01-03 10:14:00,
2013-01-03 03:19:00,34.3,22.3,30.09,NNW,336,0.0,1.0,61,0.00,,---,0.00,VWS V14.00,2013-01-03 10:19:00,
2013-01-03 03:24:00,33.9,21.5,30.09,NNW,336,0.0,1.0,60,0.00,,---,0.00,VWS V14.00,2013-01-03 10:24:00,
2013-01-03 03:29:00,32.6,20.7,30.09,NNW,336,0.0,1.0,61,0.00,,---,0.00,VWS V14.00,2013-01-03 10:29:00,
2013-01-03 03:35:00,31.5,20.7,30.09,NNW,336,0.0,0.0,64,0.00,,---,0.00,VWS V14.00,2013-01-03 10:35:00,
2013-01-03 03:40:00,30.6,20.2,30.09,NNW,336,0.0,0.0,65,0.00,,---,0.00,VWS V14.00,2013-01-03 10:40:00,
2013-01-03 03:45:00,30.4,21.1,30.09,NNW,336,0.0,0.0,68,0.00,,---,0.00,VWS V14.00,2013-01-03 10:45:00,
2013-01-03 03:50:00,30.6,21.0,30.09,NNW,336,0.0,0.0,67,0.00,,---,0.00,VWS V14.00,2013-01-03 10:50:00,
2013-01-03 03:55:00,30.3,21.0,30.09,NNW,336,0.0,0.0,68,0.00,,---,0.00,VWS V14.00,2013-01-03 10:55:00,
2013-01-03 04:00:00,30.1,21.9,30.09,NNW,336,0.0,0.0,71,0.00,,---,0.00,VWS V14.00,2013-01-03 11:00:00,
2013-01-03 04:05:00,30.6,22.7,30.08,NNW,347,0.0,0.0,72,0.00,,---,0.00,VWS V14.00,2013-01-03 11:05:00,
2013-01-03 04:10:00,31.7,23.7,30.08,NNW,347,0.0,0.0,72,0.00,,---,0.00,VWS V14.00,2013-01-03 11:10:00,
2013-01-03 04:15:00,31.8,22.8,30.08,NNW,335,0.0,0.0,69,0.00,,---,0.00,VWS V14.00,2013-01-03 11:15:00,
2013-01-03 04:20:00,32.3,21.9,30.08,NNW,334,0.0,0.0,65,0.00,,---,0.00,VWS V14.00,2013-01-03 11:20:00,
2013-01-03 04:25:00,32.9,21.3,30.09,NNW,334,0.0,0.0,62,0.00,,---,0.00,VWS V14.00,2013-01-03 11:25:00,
2013-01-03 04:30:00,33.2,21.2,30.08,NNW,334,0.0,0.0,61,0.00,,---,0.00,VWS V14.00,2013-01-03 11:30:00,
2013-01-03 04:35:00,33.2,20.8,30.08,NNW,334,0.0,0.0,60,0.00,,---,0.00,VWS V14.00,2013-01-03 11:35:00,
2013-01-03 04:40:00,32.9,20.5,30.08,NNW,333,0.0,0.0,60,0.00,,---,0.00,VWS V14.00,2013-01-03 11:40:00,
2013-01-03 04:45:00,32.8,20.5,30.08,NNW,333,0.0,0.0,60,0.00,,---,0.00,VWS V14.00,2013-01-03 11:45:00,
2013-01-03 04:50:00,32.7,20.0,30.08,WNW,287,0.0,0.0,59,0.00,,---,0.00,VWS V14.00,2013-01-03 11:50:00,
2013-01-03 04:55:00,32.8,20.1,30.08,WNW,286,1.0,1.0,59,0.00,,---,0.00,VWS V14.00,2013-01-03 11:55:00,
2013-01-03 05:00:00,32.7,19.2,30.08,WNW,286,0.0,1.0,57,0.00,,---,0.00,VWS V14.00,2013-01-03 12:00:00,
2013-01-03 05:05:00,32.6,19.1,30.08,WNW,286,0.0,0.0,57,0.00,,---,0.00,VWS V14.00,2013-01-03 12:05:00,
2013-01-03 05:10:00,32.3,19.2,30.08,WNW,286,0.0,1.0,58,0.00,,---,0.00,VWS V14.00,2013-01-03 12:10:00,
2013-01-03 05:15:00,32.4,18.9,30.08,North,5,2.0,3.0,57,0.00,,---,0.00,VWS V14.00,2013-01-03 12:15:00,
2013-01-03 05:20:00,32.4,18.9,30.08,North,351,0.0,5.0,57,0.00,,---,0.00,VWS V14.00,2013-01-03 12:20:00,
2013-01-03 05:25:00,32.4,18.9,30.08,NNW,331,0.0,5.0,57,0.00,,---,0.00,VWS V14.00,2013-01-03 12:25:00,
2013-01-03 05:30:00,32.4,19.3,30.08,NNW,346,0.0,5.0,58,0.00,,---,0.00,VWS V14.00,2013-01-03 12:30:00,
2013-01-03 05:35:00,32.4,19.3,30.08,NNW,344,0.0,0.0,58,0.00,,---,0.00,VWS V14.00,2013-01-03 12:35:00,
2013-01-03 05:40:00,32.5,19.8,30.08,NNW,344,0.0,0.0,59,0.00,,---,0.00,VWS V14.00,2013-01-03 12:40:00,
2013-01-03 05:45:00,32.5,19.8,30.08,NNW,344,0.0,0.0,59,0.00,,---,0.00,VWS V14.00,2013-01-03 12:45:00,
2013-01-03 05:50:00,32.6,20.3,30.09,NNW,332,0.0,0.0,60,0.00,,---,0.00,VWS V14.00,2013-01-03 12:50:00,
2013-01-03 05:55:00,32.7,20.4,30.09,NNW,332,0.0,0.0,60,0.00,,---,0.00,VWS V14.00,2013-01-03 12:55:00,
2013-01-03 06:00:00,32.4,19.7,30.09,NNW,342,0.0,0.0,59,0.00,,---,0.00,VWS V14.00,2013-01-03 13:00:00,
2013-01-03 06:05:00,31.7,19.8,30.09,NNW,342,0.0,0.0,61,0.00,,---,0.00,VWS V14.00,2013-01-03 13:05:00,
2013-01-03 06:10:00,31.5,20.0,30.08,NNW,342,0.0,0.0,62,0.00,,---,0.00,VWS V14.00,2013-01-03 13:10:00,
2013-01-03 06:15:00,30.8,19.7,30.08,NNW,342,0.0,0.0,63,0.00,,---,0.00,VWS V14.00,2013-01-03 13:15:00,
2013-01-03 06:20:00,30.0,19.3,30.09,NNW,342,0.0,0.0,64,0.00,,---,0.00,VWS V14.00,2013-01-03 13:20:00,
2013-01-03 06:25:00,29.0,19.4,30.09,NNW,341,0.0,0.0,67,0.00,,---,0.00,VWS V14.00,2013-01-03 13:25:00,
2013-01-03 06:30:00,29.1,19.5,30.08,NNW,341,0.0,0.0,67,0.00,,---,0.00,VWS V14.00,2013-01-03 13:30:00,
2013-01-03 06:35:00,28.9,19.3,30.09,NNW,341,0.0,0.0,67,0.00,,---,0.00,VWS V14.00,2013-01-03 13:35:00,
2013-01-03 06:40:00,28.7,19.5,30.09,NNW,341,0.0,0.0,68,0.00,,---,0.00,VWS V14.00,2013-01-03 13:40:00,
2013-01-03 06:45:00,28.9,20.0,30.09,NNW,341,0.0,0.0,69,0.00,,---,0.00,VWS V14.00,2013-01-03 13:45:00,
2013-01-03 06:50:00,28.9,19.3,30.09,NNW,341,0.0,0.0,67,0.00,,---,0.00,VWS V14.00,2013-01-03 13:50:00,
2013-01-03 06:55:00,28.1,18.2,30.09,NNW,341,0.0,0.0,66,0.00,,---,0.00,VWS V14.00,2013-01-03 13:55:00,
2013-01-03 07:01:00,27.4,18.6,30.09,NNW,341,0.0,0.0,69,0.00,,---,0.00,VWS V14.00,2013-01-03 14:01:00,
2013-01-03 07:06:00,26.3,17.5,30.10,NNW,341,0.0,0.0,69,0.00,,---,0.00,VWS V14.00,2013-01-03 14:06:00,
2013-01-03 07:11:00,26.4,19.2,30.11,NNW,341,0.0,0.0,74,0.00,,---,0.00,VWS V14.00,2013-01-03 14:11:00,
2013-01-03 07:16:00,27.5,19.7,30.11,NW,320,0.0,0.0,72,0.00,,---,0.00,VWS V14.00,2013-01-03 14:16:00,
2013-01-03 07:21:00,28.5,19.6,30.11,NW,320,0.0,0.0,69,0.00,,---,0.00,VWS V14.00,2013-01-03 14:21:00,
2013-01-03 07:26:00,28.9,19.0,30.11,NW,321,0.0,0.0,66,0.00,,---,0.00,VWS V14.00,2013-01-03 14:26:00,
2013-01-03 07:31:00,29.2,18.9,30.12,NW,323,0.0,0.0,65,0.00,,---,0.00,VWS V14.00,2013-01-03 14:31:00,
2013-01-03 07:36:00,29.5,18.8,30.11,NW,320,0.0,1.0,64,0.00,,---,0.00,VWS V14.00,2013-01-03 14:36:00,
2013-01-03 07:41:00,30.0,18.6,30.11,North,355,0.0,8.0,62,0.00,,---,0.00,VWS V14.00,2013-01-03 14:41:00,
2013-01-03 07:46:00,30.2,18.4,30.11,NNW,344,0.0,10.0,61,0.00,,---,0.00,VWS V14.00,2013-01-03 14:46:00,
2013-01-03 07:51:00,30.3,18.5,30.12,NNW,338,0.0,10.0,61,0.00,,---,0.00,VWS V14.00,2013-01-03 14:51:00,
2013-01-03 07:56:00,30.6,18.0,30.12,NNW,346,0.0,10.0,59,0.00,,---,0.00,VWS V14.00,2013-01-03 14:56:00,
2013-01-03 08:01:00,30.7,18.1,30.12,NNW,346,0.0,10.0,59,0.00,,---,0.00,VWS V14.00,2013-01-03 15:01:00,
2013-01-03 08:06:00,31.1,18.9,30.12,NNW,347,0.0,0.0,60,0.00,,---,0.00,VWS V14.00,2013-01-03 15:06:00,
2013-01-03 08:11:00,31.8,19.1,30.13,WNW,283,1.0,2.0,59,0.00,,---,0.00,VWS V14.00,2013-01-03 15:11:00,
2013-01-03 08:16:00,32.8,19.3,30.13,NNW,329,2.0,11.0,57,0.00,,---,0.00,VWS V14.00,2013-01-03 15:16:00,
2013-01-03 08:21:00,32.9,18.5,30.14,North,355,2.0,13.0,55,0.00,,---,0.00,VWS V14.00,2013-01-03 15:21:00,
2013-01-03 08:26:00,33.1,18.7,30.14,NNW,335,3.0,13.0,55,0.00,,---,0.00,VWS V14.00,2013-01-03 15:26:00,
2013-01-03 08:31:00,33.5,19.5,30.14,NNW,340,2.0,13.0,56,0.00,,---,0.00,VWS V14.00,2013-01-03 15:31:00,
2013-01-03 08:36:00,34.5,20.4,30.14,NNW,342,0.0,3.0,56,0.00,,---,0.00,VWS V14.00,2013-01-03 15:36:00,
2013-01-03 08:41:00,35.9,21.3,30.14,NNW,345,1.0,6.0,55,0.00,,---,0.00,VWS V14.00,2013-01-03 15:41:00,
2013-01-03 08:46:00,37.2,22.1,30.14,NNW,344,0.0,6.0,54,0.00,,---,0.00,VWS V14.00,2013-01-03 15:46:00,
2013-01-03 08:51:00,38.2,23.0,30.15,NE,56,0.0,6.0,54,0.00,,---,0.00,VWS V14.00,2013-01-03 15:51:00,
2013-01-03 08:56:00,39.1,23.4,30.15,SE,126,0.0,6.0,53,0.00,,---,0.00,VWS V14.00,2013-01-03 15:56:00,
2013-01-03 09:01:00,39.8,24.5,30.15,SE,126,0.0,6.0,54,0.00,,---,0.00,VWS V14.00,2013-01-03 16:01:00,
2013-01-03 09:06:00,41.0,24.7,30.16,SE,126,0.0,0.0,52,0.00,,---,0.00,VWS V14.00,2013-01-03 16:06:00,
2013-01-03 09:11:00,41.9,25.1,30.16,SE,126,0.0,1.0,51,0.00,,---,0.00,VWS V14.00,2013-01-03 16:11:00,
2013-01-03 09:16:00,42.4,24.6,30.16,SE,126,0.0,1.0,49,0.00,,---,0.00,VWS V14.00,2013-01-03 16:16:00,
2013-01-03 09:21:00,42.2,23.4,30.16,West,279,0.0,3.0,47,0.00,,---,0.00,VWS V14.00,2013-01-03 16:21:00,
2013-01-03 09:26:00,42.0,23.2,30.16,West,267,0.0,3.0,47,0.00,,---,0.00,VWS V14.00,2013-01-03 16:26:00,
2013-01-03 09:31:00,42.1,23.8,30.16,SSE,159,3.0,3.0,48,0.00,,---,0.00,VWS V14.00,2013-01-03 16:31:00,
2013-01-03 09:36:00,42.8,24.0,30.16,SE,141,0.0,4.0,47,0.00,,---,0.00,VWS V14.00,2013-01-03 16:36:00,
2013-01-03 09:41:00,42.8,24.0,30.16,SE,141,0.0,4.0,47,0.00,,---,0.00,VWS V14.00,2013-01-03 16:41:00,
2013-01-03 09:46:00,42.7,23.9,30.16,SSE,153,0.0,4.0,47,0.00,,---,0.00,VWS V14.00,2013-01-03 16:46:00,
2013-01-03 09:51:00,43.1,24.3,30.16,SSE,154,1.0,4.0,47,0.00,,---,0.00,VWS V14.00,2013-01-03 16:51:00,
2013-01-03 09:56:00,43.4,24.5,30.16,SSE,154,0.0,4.0,47,0.00,,---,0.00,VWS V14.00,2013-01-03 16:56:00,
2013-01-03 10:01:00,43.4,24.0,30.16,ENE,63,5.0,7.0,46,0.00,,---,0.00,VWS V14.00,2013-01-03 17:01:00,
2013-01-03 10:06:00,43.4,23.0,30.16,NE,55,8.0,10.0,44,0.00,,---,0.00,VWS V14.00,2013-01-03 17:06:00,
2013-01-03 10:11:00,43.5,23.6,30.16,NE,52,3.0,11.0,45,0.00,,---,0.00,VWS V14.00,2013-01-03 17:11:00,
2013-01-03 10:16:00,43.7,23.2,30.16,NE,49,3.0,11.0,44,0.00,,---,0.00,VWS V14.00,2013-01-03 17:16:00,
2013-01-03 10:22:00,43.5,23.0,30.16,ENE,63,6.0,11.0,44,0.00,,---,0.00,VWS V14.00,2013-01-03 17:22:00,
2013-01-03 10:27:00,43.4,23.0,30.16,ENE,72,2.0,11.0,44,0.00,,---,0.00,VWS V14.00,2013-01-03 17:27:00,
2013-01-03 10:32:00,43.5,23.6,30.16,NE,53,4.0,5.0,45,0.00,,---,0.00,VWS V14.00,2013-01-03 17:32:00,
2013-01-03 10:37:00,43.8,23.9,30.16,ENE,62,1.0,5.0,45,0.00,,---,0.00,VWS V14.00,2013-01-03 17:37:00,
2013-01-03 10:42:00,44.0,23.5,30.16,ENE,70,3.0,5.0,44,0.00,,---,0.00,VWS V14.00,2013-01-03 17:42:00,
2013-01-03 10:47:00,44.3,24.3,30.16,NE,53,1.0,5.0,45,0.00,,---,0.00,VWS V14.00,2013-01-03 17:47:00,
2013-01-03 10:52:00,44.5,24.5,30.16,NNE,33,2.0,5.0,45,0.00,,---,0.00,VWS V14.00,2013-01-03 17:52:00,
2013-01-03 10:57:00,44.8,24.2,30.16,NE,48,0.0,5.0,44,0.00,,---,0.00,VWS V14.00,2013-01-03 17:57:00,
2013-01-03 11:02:00,45.2,24.0,30.15,NE,48,0.0,0.0,43,0.00,,---,0.00,VWS V14.00,2013-01-03 18:02:00,
2013-01-03 11:07:00,45.8,24.6,30.15,NE,53,0.0,3.0,43,0.00,,---,0.00,VWS V14.00,2013-01-03 18:07:00,
2013-01-03 11:12:00,45.7,23.9,30.15,NE,56,0.0,3.0,42,0.00,,---,0.00,VWS V14.00,2013-01-03 18:12:00,
2013-01-03 11:17:00,45.8,24.6,30.14,ENE,71,2.0,6.0,43,0.00,,---,0.00,VWS V14.00,2013-01-03 18:17:00,
2013-01-03 11:22:00,45.8,24.6,30.14,ENE,65,0.0,6.0,43,0.00,,---,0.00,VWS V14.00,2013-01-03 18:22:00,
2013-01-03 11:27:00,46.2,25.0,30.14,NE,52,0.0,6.0,43,0.00,,---,0.00,VWS V14.00,2013-01-03 18:27:00,
2013-01-03 11:32:00,46.1,24.3,30.13,ENE,68,4.0,7.0,42,0.00,,---,0.00,VWS V14.00,2013-01-03 18:32:00,
2013-01-03 11:37:00,46.1,24.9,30.13,East,86,2.0,7.0,43,0.00,,---,0.00,VWS V14.00,2013-01-03 18:37:00,
2013-01-03 11:42:00,46.4,24.6,30.13,ENE,63,2.0,9.0,42,0.00,,---,0.00,VWS V14.00,2013-01-03 18:42:00,
2013-01-03 11:47:00,46.4,25.1,30.13,ESE,111,3.0,9.0,43,0.00,,---,0.00,VWS V14.00,2013-01-03 18:47:00,
2013-01-03 11:52:00,46.3,25.0,30.13,ENE,73,6.0,12.0,43,0.00,,---,0.00,VWS V14.00,2013-01-03 18:52:00,
2013-01-03 11:57:00,46.6,25.3,30.13,East,83,7.0,12.0,43,0.00,,---,0.00,VWS V14.00,2013-01-03 18:57:00,
2013-01-03 12:02:00,46.6,25.3,30.13,ENE,71,7.0,10.0,43,0.00,,---,0.00,VWS V14.00,2013-01-03 19:02:00,
2013-01-03 12:07:00,46.4,24.6,30.12,NE,48,12.0,14.0,42,0.00,,---,0.00,VWS V14.00,2013-01-03 19:07:00,
2013-01-03 12:12:00,46.1,24.9,30.12,ENE,67,11.0,15.0,43,0.00,,---,0.00,VWS V14.00,2013-01-03 19:12:00,
2013-01-03 12:17:00,46.4,25.1,30.12,ENE,61,2.0,15.0,43,0.00,,---,0.00,VWS V14.00,2013-01-03 19:17:00,
2013-01-03 12:55:00,47.5,26.1,30.11,ESE,118,6.0,10.0,43,0.00,,---,0.00,VWS V14.00,2013-01-03 19:55:00,
2013-01-03 13:00:00,47.3,26.0,30.11,East,84,0.0,10.0,43,0.00,,---,0.00,VWS V14.00,2013-01-03 20:00:00,
2013-01-03 13:05:00,47.4,26.0,30.11,ESE,105,0.0,6.0,43,0.00,,---,0.00,VWS V14.00,2013-01-03 20:05:00,
2013-01-03 13:10:00,47.7,26.3,30.11,ENE,69,0.0,6.0,43,0.00,,---,0.00,VWS V14.00,2013-01-03 20:10:00,
2013-01-03 13:15:00,48.3,26.9,30.10,East,99,0.0,6.0,43,0.00,,---,0.00,VWS V14.00,2013-01-03 20:15:00,
2013-01-03 13:20:00,48.5,26.5,30.10,SSW,205,0.0,8.0,42,0.00,,---,0.00,VWS V14.00,2013-01-03 20:20:00,
2013-01-03 13:25:00,48.5,27.0,30.10,NE,46,0.0,8.0,43,0.00,,---,0.00,VWS V14.00,2013-01-03 20:25:00,
2013-01-03 13:30:00,48.2,26.2,30.10,East,87,0.0,10.0,42,0.00,,---,0.00,VWS V14.00,2013-01-03 20:30:00,
2013-01-03 13:35:00,48.0,26.6,30.10,ENE,73,0.0,6.0,43,0.00,,---,0.00,VWS V14.00,2013-01-03 20:35:00,
2013-01-03 13:40:00,48.1,26.1,30.09,NE,55,0.0,6.0,42,0.00,,---,0.00,VWS V14.00,2013-01-03 20:40:00,
2013-01-03 13:45:00,47.4,26.0,30.09,ENE,61,2.0,7.0,43,0.00,,---,0.00,VWS V14.00,2013-01-03 20:45:00,
2013-01-03 13:50:00,47.1,26.9,30.10,ENE,69,0.0,7.0,45,0.00,,---,0.00,VWS V14.00,2013-01-03 20:50:00,
2013-01-03 13:55:00,47.7,26.9,30.10,SE,126,7.0,7.0,44,0.00,,---,0.00,VWS V14.00,2013-01-03 20:55:00,
2013-01-03 14:00:00,47.8,26.4,30.10,ENE,60,2.0,7.0,43,0.00,,---,0.00,VWS V14.00,2013-01-03 21:00:00,
2013-01-03 14:05:00,47.5,26.1,30.09,NE,55,3.0,10.0,43,0.00,,---,0.00,VWS V14.00,2013-01-03 21:05:00,
2013-01-03 14:10:00,46.8,26.0,30.10,NE,38,0.0,10.0,44,0.00,,---,0.00,VWS V14.00,2013-01-03 21:10:00,
2013-01-03 14:15:00,47.4,26.0,30.10,ENE,74,9.0,10.0,43,0.00,,---,0.00,VWS V14.00,2013-01-03 21:15:00,
2013-01-03 14:20:00,47.3,26.5,30.10,NE,34,2.0,10.0,44,0.00,,---,0.00,VWS V14.00,2013-01-03 21:20:00,
2013-01-03 14:25:00,47.7,26.3,30.10,ENE,74,2.0,10.0,43,0.00,,---,0.00,VWS V14.00,2013-01-03 21:25:00,
2013-01-03 14:30:00,47.5,26.1,30.10,East,82,0.0,13.0,43,0.00,,---,0.00,VWS V14.00,2013-01-03 21:30:00,
2013-01-03 14:35:00,47.4,26.6,30.10,ENE,59,3.0,10.0,44,0.00,,---,0.00,VWS V14.00,2013-01-03 21:35:00,
2013-01-03 14:40:00,47.5,26.7,30.10,East,100,2.0,10.0,44,0.00,,---,0.00,VWS V14.00,2013-01-03 21:40:00,
2013-01-03 14:45:00,47.2,26.4,30.10,East,79,4.0,10.0,44,0.00,,---,0.00,VWS V14.00,2013-01-03 21:45:00,
2013-01-03 14:50:00,47.1,26.9,30.10,East,81,0.0,10.0,45,0.00,,---,0.00,VWS V14.00,2013-01-03 21:50:00,
2013-01-03 14:55:00,47.3,27.0,30.10,ENE,73,4.0,10.0,45,0.00,,---,0.00,VWS V14.00,2013-01-03 21:55:00,
2013-01-03 15:00:00,47.5,26.7,30.10,ENE,57,5.0,11.0,44,0.00,,---,0.00,VWS V14.00,2013-01-03 22:00:00,
2013-01-03 15:05:00,47.4,27.1,30.10,ENE,63,0.0,11.0,45,0.00,,---,0.00,VWS V14.00,2013-01-03 22:05:00,
2013-01-03 15:10:00,47.3,26.5,30.11,ESE,107,2.0,11.0,44,0.00,,---,0.00,VWS V14.00,2013-01-03 22:10:00,
2013-01-03 15:15:00,46.8,27.1,30.11,ENE,66,4.0,12.0,46,0.00,,---,0.00,VWS V14.00,2013-01-03 22:15:00,
2013-01-03 15:20:00,47.0,27.3,30.11,ENE,71,5.0,12.0,46,0.00,,---,0.00,VWS V14.00,2013-01-03 22:20:00,
2013-01-03 15:25:00,46.9,26.7,30.11,NE,42,0.0,12.0,45,0.00,,---,0.00,VWS V14.00,2013-01-03 22:25:00,
2013-01-03 15:30:00,46.8,27.1,30.11,ENE,67,8.0,12.0,46,0.00,,---,0.00,VWS V14.00,2013-01-03 22:30:00,
2013-01-03 15:35:00,46.7,27.0,30.11,East,86,5.0,8.0,46,0.00,,---,0.00,VWS V14.00,2013-01-03 22:35:00,
2013-01-03 15:40:00,46.7,27.0,30.12,ENE,67,4.0,8.0,46,0.00,,---,0.00,VWS V14.00,2013-01-03 22:40:00,
2013-01-03 15:45:00,46.4,27.3,30.11,ENE,65,5.0,11.0,47,0.00,,---,0.00,VWS V14.00,2013-01-03 22:45:00,
2013-01-03 15:50:00,46.0,27.4,30.12,East,86,7.0,11.0,48,0.00,,---,0.00,VWS V14.00,2013-01-03 22:50:00,
2013-01-03 15:55:00,45.5,27.5,30.12,ENE,70,0.0,11.0,49,0.00,,---,0.00,VWS V14.00,2013-01-03 22:55:00,
2013-01-03 16:00:00,45.6,27.1,30.12,East,82,4.0,11.0,48,0.00,,---,0.00,VWS V14.00,2013-01-03 23:00:00,
2013-01-03 16:05:00,45.4,27.4,30.12,ENE,68,5.0,6.0,49,0.00,,---,0.00,VWS V14.00,2013-01-03 23:05:00,
2013-01-03 16:10:00,45.4,27.4,30.12,East,96,5.0,11.0,49,0.00,,---,0.00,VWS V14.00,2013-01-03 23:10:00,
2013-01-03 16:15:00,45.3,27.8,30.12,East,80,0.0,11.0,50,0.00,,---,0.00,VWS V14.00,2013-01-03 23:15:00,
2013-01-03 16:20:00,45.0,27.5,30.12,ENE,78,7.0,13.0,50,0.00,,---,0.00,VWS V14.00,2013-01-03 23:20:00,
2013-01-03 16:25:00,44.5,27.5,30.13,NE,35,2.0,13.0,51,0.00,,---,0.00,VWS V14.00,2013-01-03 23:25:00,
2013-01-03 16:30:00,44.1,27.6,30.13,NE,46,9.0,13.0,52,0.00,,---,0.00,VWS V14.00,2013-01-03 23:30:00,
2013-01-03 16:35:00,43.6,27.1,30.14,NE,47,2.0,7.0,52,0.00,,---,0.00,VWS V14.00,2013-01-03 23:35:00,
2013-01-03 16:40:00,43.0,27.0,30.14,ENE,73,4.0,7.0,53,0.00,,---,0.00,VWS V14.00,2013-01-03 23:40:00,
2013-01-03 16:45:00,42.4,27.4,30.14,East,87,2.0,7.0,55,0.00,,---,0.00,VWS V14.00,2013-01-03 23:45:00,
2013-01-03 16:50:00,42.0,27.0,30.15,East,94,0.0,7.0,55,0.00,,---,0.00,VWS V14.00,2013-01-03 23:50:00,
2013-01-03 16:55:00,41.8,27.3,30.15,ENE,76,0.0,7.0,56,0.00,,---,0.00,VWS V14.00,2013-01-03 23:55:00,
2013-01-03 17:00:00,41.6,27.5,30.16,ENE,75,0.0,7.0,57,0.00,,---,0.00,VWS V14.00,2013-01-04 00:00:00,
2013-01-03 17:06:00,41.3,27.6,30.16,North,5,0.0,0.0,58,0.00,,---,0.00,VWS V14.00,2013-01-04 00:06:00,
2013-01-03 17:11:00,39.6,26.1,30.16,North,350,0.0,12.0,58,0.00,,---,0.00,VWS V14.00,2013-01-04 00:11:00,
2013-01-03 17:16:00,38.2,26.3,30.17,North,5,12.0,14.0,62,0.00,,---,0.00,VWS V14.00,2013-01-04 00:16:00,
2013-01-03 17:21:00,37.5,26.1,30.17,NNE,30,6.0,14.0,63,0.00,,---,0.00,VWS V14.00,2013-01-04 00:21:00,
2013-01-03 17:26:00,36.6,26.0,30.17,NE,34,6.0,14.0,65,0.00,,---,0.00,VWS V14.00,2013-01-04 00:26:00,
2013-01-03 17:31:00,36.5,26.2,30.17,North,355,7.0,14.0,66,0.00,,---,0.00,VWS V14.00,2013-01-04 00:31:00,
2013-01-03 17:36:00,37.1,27.2,30.17,NNE,28,0.0,6.0,67,0.00,,---,0.00,VWS V14.00,2013-01-04 00:36:00,
2013-01-03 17:41:00,37.7,27.0,30.17,NNW,339,5.0,12.0,65,0.00,,---,0.00,VWS V14.00,2013-01-04 00:41:00,
2013-01-03 17:46:00,38.3,27.2,30.18,NNE,27,1.0,12.0,64,0.00,,---,0.00,VWS V14.00,2013-01-04 00:46:00,
2013-01-03 17:51:00,38.0,26.9,30.18,ENE,63,1.0,12.0,64,0.00,,---,0.00,VWS V14.00,2013-01-04 00:51:00,
2013-01-03 17:56:00,38.0,27.3,30.18,ENE,63,7.0,12.0,65,0.00,,---,0.00,VWS V14.00,2013-01-04 00:56:00,
2013-01-03 18:01:00,37.9,27.2,30.18,ENE,67,1.0,12.0,65,0.00,,---,0.00,VWS V14.00,2013-01-04 01:01:00,
2013-01-03 18:06:00,37.6,27.3,30.18,East,86,1.0,9.0,66,0.00,,---,0.00,VWS V14.00,2013-01-04 01:06:00,
2013-01-03 18:11:00,37.3,27.0,30.18,East,80,6.0,13.0,66,0.00,,---,0.00,VWS V14.00,2013-01-04 01:11:00,
2013-01-03 18:16:00,37.1,27.2,30.18,East,96,1.0,13.0,67,0.00,,---,0.00,VWS V14.00,2013-01-04 01:16:00,
2013-01-03 18:21:00,37.1,27.2,30.18,ESE,115,0.0,13.0,67,0.00,,---,0.00,VWS V14.00,2013-01-04 01:21:00,
2013-01-03 18:26:00,36.8,26.9,30.19,ENE,67,1.0,13.0,67,0.00,,---,0.00,VWS V14.00,2013-01-04 01:26:00,
2013-01-03 18:31:00,36.6,27.0,30.19,ENE,65,0.0,13.0,68,0.00,,---,0.00,VWS V14.00,2013-01-04 01:31:00,
2013-01-03 18:36:00,36.2,26.7,30.18,ENE,76,0.0,10.0,68,0.00,,---,0.00,VWS V14.00,2013-01-04 01:36:00,
2013-01-03 18:41:00,35.9,26.7,30.18,ENE,77,1.0,10.0,69,0.00,,---,0.00,VWS V14.00,2013-01-04 01:41:00,
2013-01-03 18:46:00,35.7,26.9,30.19,East,96,0.0,10.0,70,0.00,,---,0.00,VWS V14.00,2013-01-04 01:46:00,
2013-01-03 18:51:00,35.6,26.8,30.19,East,100,1.0,10.0,70,0.00,,---,0.00,VWS V14.00,2013-01-04 01:51:00,
2013-01-03 18:56:00,35.4,26.6,30.19,East,82,1.0,10.0,70,0.00,,---,0.00,VWS V14.00,2013-01-04 01:56:00,
2013-01-03 19:01:00,35.2,26.8,30.19,ENE,76,0.0,10.0,71,0.00,,---,0.00,VWS V14.00,2013-01-04 02:01:00,
2013-01-03 19:06:00,35.0,26.6,30.19,East,92,1.0,6.0,71,0.00,,---,0.00,VWS V14.00,2013-01-04 02:06:00,
2013-01-03 19:11:00,34.9,26.8,30.20,East,96,0.0,6.0,72,0.00,,---,0.00,VWS V14.00,2013-01-04 02:11:00,
2013-01-03 19:16:00,34.1,26.0,30.20,East,92,0.0,6.0,72,0.00,,---,0.00,VWS V14.00,2013-01-04 02:16:00,
2013-01-03 19:21:00,33.3,25.9,30.20,ESE,105,0.0,6.0,74,0.00,,---,0.00,VWS V14.00,2013-01-04 02:21:00,
2013-01-03 19:26:00,32.7,26.0,30.21,SE,133,0.0,6.0,76,0.00,,---,0.00,VWS V14.00,2013-01-04 02:26:00,
2013-01-03 19:31:00,32.4,26.0,30.21,SE,133,0.0,6.0,77,0.00,,---,0.00,VWS V14.00,2013-01-04 02:31:00,
2013-01-03 19:36:00,32.1,25.7,30.21,SE,133,0.0,0.0,77,0.00,,---,0.00,VWS V14.00,2013-01-04 02:36:00,
2013-01-03 19:41:00,32.0,25.9,30.21,SE,133,0.0,0.0,78,0.00,,---,0.00,VWS V14.00,2013-01-04 02:41:00,
2013-01-03 19:46:00,32.4,26.3,30.21,SE,134,0.0,0.0,78,0.00,,---,0.00,VWS V14.00,2013-01-04 02:46:00,
2013-01-03 19:51:00,32.5,26.4,30.22,SE,134,0.0,0.0,78,0.00,,---,0.00,VWS V14.00,2013-01-04 02:51:00,
2013-01-03 19:56:00,32.6,26.2,30.22,SE,134,0.0,0.0,77,0.00,,---,0.00,VWS V14.00,2013-01-04 02:56:00,
2013-01-03 20:01:00,32.5,25.8,30.22,SE,134,0.0,0.0,76,0.00,,---,0.00,VWS V14.00,2013-01-04 03:01:00,
2013-01-03 20:06:00,32.0,25.6,30.22,SE,136,0.0,0.0,77,0.00,,---,0.00,VWS V14.00,2013-01-04 03:06:00,
2013-01-03 20:11:00,31.9,25.8,30.22,SE,140,0.0,0.0,78,0.00,,---,0.00,VWS V14.00,2013-01-04 03:11:00,
2013-01-03 20:16:00,31.9,26.1,30.22,SE,140,0.0,0.0,79,0.00,,---,0.00,VWS V14.00,2013-01-04 03:16:00,
2013-01-03 20:21:00,32.0,26.5,30.23,SE,140,0.0,0.0,80,0.00,,---,0.00,VWS V14.00,2013-01-04 03:21:00,
2013-01-03 20:26:00,32.1,26.6,30.23,SE,140,0.0,0.0,80,0.00,,---,0.00,VWS V14.00,2013-01-04 03:26:00,
2013-01-03 20:31:00,32.2,26.7,30.23,SE,140,0.0,0.0,80,0.00,,---,0.00,VWS V14.00,2013-01-04 03:31:00,
2013-01-03 20:36:00,32.3,26.8,30.22,SE,140,0.0,0.0,80,0.00,,---,0.00,VWS V14.00,2013-01-04 03:36:00,
2013-01-03 20:41:00,32.4,26.9,30.23,SE,140,0.0,0.0,80,0.00,,---,0.00,VWS V14.00,2013-01-04 03:41:00,
2013-01-03 20:46:00,32.4,26.9,30.22,SE,140,0.0,0.0,80,0.00,,---,0.00,VWS V14.00,2013-01-04 03:46:00,
2013-01-03 20:51:00,32.4,26.9,30.23,SE,140,0.0,0.0,80,0.00,,---,0.00,VWS V14.00,2013-01-04 03:51:00,
2013-01-03 20:56:00,32.4,26.9,30.23,SE,140,0.0,0.0,80,0.00,,---,0.00,VWS V14.00,2013-01-04 03:56:00,
2013-01-03 21:01:00,32.4,26.9,30.23,SE,140,0.0,0.0,80,0.00,,---,0.00,VWS V14.00,2013-01-04 04:01:00,
2013-01-03 21:06:00,32.4,26.9,30.23,South,169,0.0,0.0,80,0.00,,---,0.00,VWS V14.00,2013-01-04 04:06:00,
2013-01-03 21:11:00,32.2,26.4,30.24,South,173,0.0,0.0,79,0.00,,---,0.00,VWS V14.00,2013-01-04 04:11:00,
2013-01-03 21:16:00,32.0,26.5,30.24,South,173,0.0,0.0,80,0.00,,---,0.00,VWS V14.00,2013-01-04 04:16:00,
2013-01-03 21:21:00,32.0,26.5,30.24,South,173,0.0,0.0,80,0.00,,---,0.00,VWS V14.00,2013-01-04 04:21:00,
2013-01-03 21:26:00,31.9,26.4,30.24,South,173,0.0,0.0,80,0.00,,---,0.00,VWS V14.00,2013-01-04 04:26:00,
2013-01-03 21:31:00,31.9,26.1,30.25,South,173,0.0,0.0,79,0.00,,---,0.00,VWS V14.00,2013-01-04 04:31:00,
2013-01-03 21:36:00,31.7,25.9,30.25,South,173,0.0,0.0,79,0.00,,---,0.00,VWS V14.00,2013-01-04 04:36:00,
2013-01-03 21:41:00,31.6,26.1,30.25,South,173,0.0,0.0,80,0.00,,---,0.00,VWS V14.00,2013-01-04 04:41:00,
2013-01-03 21:46:00,31.5,26.0,30.25,South,173,0.0,0.0,80,0.00,,---,0.00,VWS V14.00,2013-01-04 04:46:00,
2013-01-03 21:51:00,31.5,26.0,30.25,South,173,0.0,0.0,80,0.00,,---,0.00,VWS V14.00,2013-01-04 04:51:00,
2013-01-03 21:56:00,31.4,26.0,30.25,South,173,0.0,0.0,80,0.00,,---,0.00,VWS V14.00,2013-01-04 04:56:00,
2013-01-03 22:00:00,31.2,26.1,30.25,South,173,0.0,0.0,81,0.00,,---,0.00,VWS V14.00,2013-01-04 05:00:00,
2013-01-03 22:02:00,31.2,26.1,30.26,South,173,0.0,0.0,81,0.00,,---,0.00,VWS V14.00,2013-01-04 05:02:00,
2013-01-03 22:03:00,31.2,26.1,30.25,South,173,0.0,0.0,81,0.00,,---,0.00,VWS V14.00,2013-01-04 05:03:00,
2013-01-03 22:08:00,31.1,26.3,30.26,South,172,0.0,0.0,82,0.00,,---,0.00,VWS V14.00,2013-01-04 05:08:00,
2013-01-03 22:13:00,31.0,26.2,30.26,South,172,0.0,0.0,82,0.00,,---,0.00,VWS V14.00,2013-01-04 05:13:00,
2013-01-03 22:18:00,30.9,26.1,30.26,South,172,0.0,0.0,82,0.00,,---,0.00,VWS V14.00,2013-01-04 05:18:00,
2013-01-03 22:23:00,30.9,26.1,30.26,South,172,0.0,0.0,82,0.00,,---,0.00,VWS V14.00,2013-01-04 05:23:00,
2013-01-03 22:28:00,30.8,26.0,30.25,South,172,0.0,0.0,82,0.00,,---,0.00,VWS V14.00,2013-01-04 05:28:00,
2013-01-03 22:33:00,30.7,25.9,30.26,South,172,0.0,0.0,82,0.00,,---,0.00,VWS V14.00,2013-01-04 05:33:00,
2013-01-03 22:38:00,30.6,26.1,30.26,South,172,0.0,0.0,83,0.00,,---,0.00,VWS V14.00,2013-01-04 05:38:00,
2013-01-03 22:43:00,30.8,26.3,30.26,South,172,0.0,0.0,83,0.00,,---,0.00,VWS V14.00,2013-01-04 05:43:00,
2013-01-03 22:48:00,31.0,26.7,30.26,South,172,0.0,0.0,84,0.00,,---,0.00,VWS V14.00,2013-01-04 05:48:00,
2013-01-03 22:53:00,30.9,26.4,30.26,South,172,0.0,0.0,83,0.00,,---,0.00,VWS V14.00,2013-01-04 05:53:00,
2013-01-03 22:58:00,30.8,26.3,30.26,South,172,0.0,0.0,83,0.00,,---,0.00,VWS V14.00,2013-01-04 05:58:00,
2013-01-03 23:03:00,30.7,26.2,30.25,South,172,0.0,0.0,83,0.00,,---,0.00,VWS V14.00,2013-01-04 06:03:00,
2013-01-03 23:08:00,30.6,26.1,30.26,South,172,0.0,0.0,83,0.00,,---,0.00,VWS V14.00,2013-01-04 06:08:00,
2013-01-03 23:13:00,30.6,26.1,30.25,South,172,0.0,0.0,83,0.00,,---,0.00,VWS V14.00,2013-01-04 06:13:00,
2013-01-03 23:18:00,30.6,26.1,30.26,South,172,0.0,0.0,83,0.00,,---,0.00,VWS V14.00,2013-01-04 06:18:00,
2013-01-03 23:23:00,30.3,25.5,30.26,South,172,0.0,0.0,82,0.00,,---,0.00,VWS V14.00,2013-01-04 06:23:00,
2013-01-03 23:28:00,30.0,25.2,30.26,South,172,0.0,0.0,82,0.00,,---,0.00,VWS V14.00,2013-01-04 06:28:00,
2013-01-03 23:33:00,29.8,25.3,30.26,South,172,0.0,0.0,83,0.00,,---,0.00,VWS V14.00,2013-01-04 06:33:00,
2013-01-03 23:38:00,29.8,25.6,30.26,South,172,0.0,0.0,84,0.00,,---,0.00,VWS V14.00,2013-01-04 06:38:00,
2013-01-03 23:43:00,29.4,24.6,30.26,South,172,0.0,0.0,82,0.00,,---,0.00,VWS V14.00,2013-01-04 06:43:00,
2013-01-03 23:48:00,28.8,23.7,30.26,South,172,0.0,0.0,81,0.00,,---,0.00,VWS V14.00,2013-01-04 06:48:00,
2013-01-03 23:53:00,28.3,23.5,30.26,South,172,0.0,0.0,82,0.00,,---,0.00,VWS V14.00,2013-01-04 06:53:00,
2013-01-03 23:58:00,27.8,23.3,30.26,South,172,0.0,0.0,83,0.00,,---,0.00,VWS V14.00,2013-01-04 06:58:00,